Time;durP1;ratioP1;P1;durP2;ratioP2;P2;SDS_P1;SDS_P2;PMS_P1;PMS_P2;Temp;Humidity;BMP_temperature;BMP_pressure;BME280_temperature;BME280_humidity;BME280_pressure;Samples;Min_cycle;Max_cycle;Signal;HPM_P1;HPM_P2
2023/06/02 00:00:39;;;;;;;5.70;4.53;;;14.40;81.50;;;;;;5012659;28;20486;-69
2023/06/02 00:03:10;;;;;;;5.37;4.87;;;14.30;74.40;;;;;;5012418;28;20453;-68
2023/06/02 00:05:39;;;;;;;4.93;4.43;;;14.40;73.20;;;;;;5012864;28;20444;-69
2023/06/02 00:08:08;;;;;;;5.70;5.10;;;14.40;75.70;;;;;;5012454;28;20926;-68
2023/06/02 00:10:36;;;;;;;5.47;4.60;;;14.40;76.70;;;;;;5012415;28;20473;-69
2023/06/02 00:13:04;;;;;;;5.87;4.63;;;14.50;77.60;;;;;;5012330;28;20452;-68
2023/06/02 00:15:33;;;;;;;5.93;4.93;;;14.40;80.70;;;;;;5012600;28;21024;-67
2023/06/02 00:18:01;;;;;;;5.93;4.33;;;14.30;81.70;;;;;;5012454;28;20465;-67
2023/06/02 00:20:31;;;;;;;14.73;4.80;;;14.20;84.30;;;;;;5012601;28;20478;-67
2023/06/02 00:23:01;;;;;;;5.47;4.67;;;14.10;82.80;;;;;;5011441;28;20801;-68
2023/06/02 00:25:30;;;;;;;6.60;4.87;;;14.10;83.30;;;;;;5012796;28;20536;-68
2023/06/02 00:27:58;;;;;;;5.93;5.07;;;14.10;82.90;;;;;;5012277;28;20454;-67
2023/06/02 00:30:27;;;;;;;5.40;4.57;;;14.10;84.20;;;;;;5012327;28;20450;-68
2023/06/02 00:32:55;;;;;;;5.20;4.70;;;14.00;84.80;;;;;;5011709;28;20477;-68
2023/06/02 00:35:23;;;;;;;5.83;4.83;;;14.00;85.70;;;;;;5011879;28;20448;-68
2023/06/02 00:37:53;;;;;;;5.40;4.90;;;13.90;86.40;;;;;;5011870;28;20900;-68
2023/06/02 00:40:21;;;;;;;5.40;4.03;;;13.90;85.60;;;;;;5011712;28;20508;-67
2023/06/02 00:42:50;;;;;;;5.67;4.50;;;13.90;84.70;;;;;;5011625;28;20543;-67
2023/06/02 00:45:18;;;;;;;5.57;5.03;;;13.80;86.10;;;;;;5011894;28;20452;-67
2023/06/02 00:47:46;;;;;;;5.80;5.20;;;13.70;86.00;;;;;;5011799;28;20447;-67
2023/06/02 00:50:14;;;;;;;9.23;5.50;;;13.70;84.80;;;;;;5011649;28;20471;-68
2023/06/02 00:52:42;;;;;;;6.03;5.10;;;13.60;83.60;;;;;;5011035;28;20473;-68
2023/06/02 00:55:11;;;;;;;5.90;5.10;;;13.70;78.10;;;;;;5011454;28;21124;-68
2023/06/02 00:57:40;;;;;;;5.37;4.20;;;13.70;78.10;;;;;;5011843;28;20438;-67
2023/06/02 01:00:10;;;;;;;5.90;4.60;;;13.80;75.60;;;;;;5011531;28;21085;-67
2023/06/02 01:02:38;;;;;;;7.20;4.20;;;14.00;73.80;;;;;;5010965;28;20509;-68
2023/06/02 01:05:10;;;;;;;9.00;4.53;;;14.20;72.00;;;;;;5011333;28;21007;-67
2023/06/02 01:07:44;;;;;;;5.13;4.63;;;14.40;71.10;;;;;;5011491;28;20500;-67
2023/06/02 01:10:15;;;;;;;4.90;4.40;;;14.40;74.60;;;;;;5011389;28;20461;-68
2023/06/02 01:12:44;;;;;;;5.50;5.00;;;14.30;72.30;;;;;;5011057;28;20450;-68
2023/06/02 01:15:12;;;;;;;5.60;4.17;;;14.20;76.70;;;;;;5011486;28;20446;-68
2023/06/02 01:17:45;;;;;;;5.13;4.60;;;14.10;79.10;;;;;;5010964;28;20485;-67
2023/06/02 01:20:15;;;;;;;8.33;5.07;;;13.90;80.70;;;;;;5011077;28;20532;-69
2023/06/02 01:22:49;;;;;;;5.70;4.50;;;13.80;78.40;;;;;;5010657;28;20965;-69
2023/06/02 01:25:20;;;;;;;6.47;4.67;;;13.70;79.80;;;;;;5011015;28;20445;-68
2023/06/02 01:27:49;;;;;;;5.20;4.10;;;13.60;81.90;;;;;;5010945;28;20971;-69
2023/06/02 01:30:17;;;;;;;5.87;5.17;;;13.40;81.70;;;;;;5010597;28;20457;-69
2023/06/02 01:32:52;;;;;;;7.37;5.13;;;13.40;83.40;;;;;;5010713;28;20483;-68
2023/06/02 01:35:22;;;;;;;7.00;4.50;;;13.40;84.00;;;;;;5010709;28;20485;-68
2023/06/02 01:37:56;;;;;;;7.83;5.00;;;13.40;80.80;;;;;;5010660;28;20499;-68
2023/06/02 01:40:28;;;;;;;6.17;5.30;;;13.30;79.80;;;;;;5010375;28;20524;-68
2023/06/02 01:42:57;;;;;;;6.37;5.30;;;13.40;79.60;;;;;;5010739;28;20446;-68
2023/06/02 01:45:26;;;;;;;6.93;5.07;;;13.30;79.80;;;;;;5010548;28;20547;-68
2023/06/02 01:48:01;;;;;;;7.10;4.87;;;13.30;78.40;;;;;;5010549;28;20457;-68
2023/06/02 01:50:29;;;;;;;6.87;5.03;;;13.30;79.50;;;;;;5010379;28;20429;-68
2023/06/02 01:52:57;;;;;;;5.93;4.70;;;13.40;77.50;;;;;;5010018;28;20946;-68
2023/06/02 01:55:27;;;;;;;7.67;6.20;;;13.50;77.50;;;;;;5010257;28;20438;-68
2023/06/02 01:57:55;;;;;;;6.60;5.40;;;13.50;77.10;;;;;;5010566;28;20446;-68
2023/06/02 02:00:23;;;;;;;6.33;5.50;;;13.40;78.50;;;;;;5010096;28;20558;-68
2023/06/02 02:02:52;;;;;;;10.20;6.10;;;13.40;78.60;;;;;;5009118;28;20445;-68
2023/06/02 02:05:20;;;;;;;5.70;5.10;;;13.40;81.80;;;;;;5010327;28;20795;-68
2023/06/02 02:07:50;;;;;;;6.03;4.93;;;13.40;80.60;;;;;;5010086;28;20442;-68
2023/06/02 02:10:19;;;;;;;9.80;6.67;;;13.30;80.70;;;;;;5010394;28;20516;-68
2023/06/02 02:12:48;;;;;;;6.57;5.87;;;13.30;83.10;;;;;;5009909;28;20448;-68
2023/06/02 02:15:17;;;;;;;6.03;5.10;;;13.10;84.50;;;;;;5010088;28;20546;-68
2023/06/02 02:17:47;;;;;;;6.93;5.43;;;13.00;85.00;;;;;;5010070;28;20533;-69
2023/06/02 02:20:17;;;;;;;7.30;5.53;;;12.90;85.80;;;;;;5009857;28;20473;-68
2023/06/02 02:22:45;;;;;;;5.57;4.97;;;12.90;85.80;;;;;;5009828;28;20452;-68
2023/06/02 02:25:14;;;;;;;6.20;5.23;;;12.90;87.00;;;;;;5010391;28;20810;-68
2023/06/02 02:27:42;;;;;;;6.77;5.60;;;12.90;88.40;;;;;;5010049;28;20838;-67
2023/06/02 02:30:12;;;;;;;8.27;5.57;;;12.90;89.70;;;;;;5009857;28;20972;-68
2023/06/02 02:32:43;;;;;;;6.93;5.70;;;12.80;90.40;;;;;;5009516;28;20821;-68
2023/06/02 02:35:11;;;;;;;8.10;7.10;;;12.80;90.60;;;;;;5009986;28;20443;-68
2023/06/02 02:37:40;;;;;;;5.87;4.80;;;12.70;90.80;;;;;;5009907;28;20452;-68
2023/06/02 02:40:15;;;;;;;6.00;5.13;;;12.70;90.70;;;;;;5009840;28;20885;-68
2023/06/02 02:42:43;;;;;;;6.80;5.23;;;12.50;90.60;;;;;;5009609;28;20550;-68
2023/06/02 02:45:12;;;;;;;10.37;6.20;;;12.50;90.80;;;;;;5009640;28;20441;-68
2023/06/02 02:47:43;;;;;;;7.90;6.27;;;12.50;91.70;;;;;;5012895;28;20451;-68
2023/06/02 02:50:11;;;;;;;7.97;6.07;;;12.50;91.70;;;;;;5013838;28;20865;-69
2023/06/02 02:52:39;;;;;;;6.30;5.70;;;12.50;91.00;;;;;;5013564;28;20442;-68
2023/06/02 02:55:08;;;;;;;7.77;5.63;;;12.50;90.60;;;;;;5013939;28;20528;-68
2023/06/02 02:57:37;;;;;;;7.10;5.13;;;12.40;91.00;;;;;;5013860;28;20773;-69
2023/06/02 03:00:07;;;;;;;7.53;6.30;;;12.40;92.20;;;;;;5013789;28;20468;-68
2023/06/02 03:02:36;;;;;;;8.10;6.03;;;12.40;91.80;;;;;;5013751;28;20425;-67
2023/06/02 03:05:06;;;;;;;7.90;6.50;;;12.40;91.70;;;;;;5013717;28;20449;-68
2023/06/02 03:07:35;;;;;;;9.67;6.40;;;12.40;92.20;;;;;;5013501;28;20544;-69
2023/06/02 03:10:03;;;;;;;6.70;5.90;;;12.40;91.70;;;;;;5013351;28;20457;-67
2023/06/02 03:12:31;;;;;;;7.07;6.20;;;12.30;92.00;;;;;;5013061;28;20433;-68
2023/06/02 03:15:01;;;;;;;6.83;5.20;;;12.30;91.50;;;;;;5013422;28;20433;-68
2023/06/02 03:17:29;;;;;;;5.87;5.27;;;12.20;91.00;;;;;;5013298;28;20447;-68
2023/06/02 03:19:59;;;;;;;7.17;6.33;;;12.20;91.50;;;;;;5013240;28;20467;-68
2023/06/02 03:22:28;;;;;;;9.57;6.33;;;12.30;91.20;;;;;;5012784;28;20437;-68
2023/06/02 03:24:56;;;;;;;7.87;5.80;;;12.40;91.00;;;;;;5012975;28;20440;-67
2023/06/02 03:27:25;;;;;;;15.43;6.77;;;12.60;90.90;;;;;;5012961;28;20440;-68
2023/06/02 03:29:52;;;;;;;8.40;6.47;;;12.70;90.70;;;;;;5013111;28;20485;-67
2023/06/02 03:32:20;;;;;;;12.20;6.73;;;12.80;90.50;;;;;;5012898;28;20434;-68
2023/06/02 03:34:48;;;;;;;8.73;6.33;;;12.90;90.50;;;;;;5012795;28;20449;-67
2023/06/02 03:37:18;;;;;;;8.07;6.70;;;12.80;90.70;;;;;;5012678;28;20456;-67
2023/06/02 03:39:46;;;;;;;8.40;6.00;;;12.70;91.00;;;;;;5012942;28;20882;-69
2023/06/02 03:42:14;;;;;;;10.00;6.87;;;12.70;91.20;;;;;;5012774;28;21093;-69
2023/06/02 03:44:42;;;;;;;12.00;7.00;;;12.70;91.40;;;;;;5012649;28;20471;-69
2023/06/02 03:47:10;;;;;;;10.20;6.83;;;12.70;93.20;;;;;;5012834;28;20826;-69
2023/06/02 03:49:38;;;;;;;8.83;6.80;;;12.70;93.20;;;;;;5012438;28;20868;-69
2023/06/02 03:52:06;;;;;;;8.10;6.93;;;12.70;94.00;;;;;;5012576;28;20508;-69
2023/06/02 03:54:35;;;;;;;8.20;6.33;;;12.70;95.00;;;;;;5012377;28;20489;-69
2023/06/02 03:57:03;;;;;;;8.37;6.50;;;12.60;94.30;;;;;;5012649;28;20523;-69
2023/06/02 03:59:31;;;;;;;7.00;6.30;;;12.60;95.00;;;;;;5011227;28;20469;-69
2023/06/02 04:01:59;;;;;;;7.50;6.80;;;12.50;95.10;;;;;;5012401;28;20474;-69
2023/06/02 04:04:27;;;;;;;9.00;7.30;;;12.40;94.10;;;;;;5011834;28;20489;-69
2023/06/02 04:06:57;;;;;;;8.00;6.80;;;12.40;94.50;;;;;;5012573;28;20479;-69
2023/06/02 04:09:25;;;;;;;9.63;7.60;;;12.40;95.30;;;;;;5012261;28;20476;-69
2023/06/02 04:11:54;;;;;;;10.50;7.47;;;12.40;95.00;;;;;;5012370;28;20438;-69
2023/06/02 04:14:22;;;;;;;10.90;7.30;;;12.50;96.80;;;;;;5012107;28;20441;-69
2023/06/02 04:16:50;;;;;;;9.33;8.03;;;12.60;95.50;;;;;;5012181;28;20511;-68
2023/06/02 04:19:18;;;;;;;8.70;7.57;;;12.70;95.90;;;;;;5012367;28;20548;-68
2023/06/02 04:21:46;;;;;;;9.63;7.53;;;12.70;94.20;;;;;;5012324;28;20477;-69
2023/06/02 04:24:14;;;;;;;8.83;7.30;;;12.60;94.20;;;;;;5012058;28;20521;-69
2023/06/02 04:26:42;;;;;;;9.00;7.07;;;12.60;94.20;;;;;;5011961;28;20441;-69
2023/06/02 04:29:11;;;;;;;9.00;6.90;;;12.70;94.00;;;;;;5011889;28;20458;-69
2023/06/02 04:31:41;;;;;;;12.93;7.30;;;12.80;94.50;;;;;;5011988;28;20533;-68
2023/06/02 04:34:09;;;;;;;11.10;6.97;;;13.00;93.40;;;;;;5011680;28;20528;-68
2023/06/02 04:36:37;;;;;;;9.83;8.20;;;13.10;93.50;;;;;;5011683;28;20479;-69
2023/06/02 04:39:07;;;;;;;9.10;7.50;;;13.10;93.80;;;;;;5011935;28;20696;-68
2023/06/02 04:41:37;;;;;;;9.77;8.33;;;13.10;93.20;;;;;;5011633;28;20972;-68
2023/06/02 04:44:08;;;;;;;9.70;7.03;;;13.20;93.10;;;;;;5011304;28;20541;-68
2023/06/02 04:46:38;;;;;;;8.90;7.13;;;13.30;92.90;;;;;;5011773;28;20823;-68
2023/06/02 04:49:08;;;;;;;12.70;8.10;;;13.20;94.00;;;;;;5011616;28;20475;-68
2023/06/02 04:51:37;;;;;;;8.23;7.40;;;13.30;93.10;;;;;;5011671;28;20432;-68
2023/06/02 04:54:06;;;;;;;8.60;7.57;;;13.40;93.20;;;;;;5011211;28;20458;-68
2023/06/02 04:56:35;;;;;;;11.90;7.90;;;13.30;93.10;;;;;;5011369;28;20974;-68
2023/06/02 04:59:03;;;;;;;10.10;8.27;;;13.40;93.00;;;;;;5011465;28;20554;-69
2023/06/02 05:01:32;;;;;;;8.80;7.70;;;13.40;92.80;;;;;;5011356;28;20508;-68
2023/06/02 05:04:04;;;;;;;9.80;7.20;;;13.40;93.30;;;;;;5011152;28;20481;-68
2023/06/02 05:06:32;;;;;;;12.27;8.63;;;13.40;93.60;;;;;;5011250;28;20493;-69
2023/06/02 05:09:01;;;;;;;8.73;7.83;;;13.40;93.40;;;;;;5010614;28;20467;-68
2023/06/02 05:11:30;;;;;;;9.40;8.00;;;13.50;93.30;;;;;;5011379;28;20442;-69
2023/06/02 05:13:58;;;;;;;8.67;7.63;;;13.60;93.60;;;;;;5011088;28;20453;-68
2023/06/02 05:16:28;;;;;;;11.07;7.90;;;13.60;93.40;;;;;;5011654;28;20524;-68
2023/06/02 05:18:56;;;;;;;8.33;6.90;;;13.70;93.20;;;;;;5011143;28;20500;-68
2023/06/02 05:21:25;;;;;;;10.00;8.60;;;13.70;93.00;;;;;;5011011;28;20589;-67
2023/06/02 05:23:53;;;;;;;11.53;8.30;;;13.70;93.30;;;;;;5010851;28;20453;-67
2023/06/02 05:26:21;;;;;;;11.90;9.40;;;13.80;93.50;;;;;;5011159;28;20499;-67
2023/06/02 05:28:50;;;;;;;9.17;8.30;;;13.80;93.60;;;;;;5010798;28;20465;-69
2023/06/02 05:31:18;;;;;;;9.70;7.63;;;13.90;93.00;;;;;;5011020;28;20462;-69
2023/06/02 05:33:46;;;;;;;10.30;7.70;;;13.80;93.40;;;;;;5010467;28;20445;-68
2023/06/02 05:36:14;;;;;;;11.97;8.03;;;13.90;93.30;;;;;;5010536;28;20447;-68
2023/06/02 05:38:45;;;;;;;12.40;7.87;;;13.90;93.30;;;;;;5010847;28;20992;-67
2023/06/02 05:41:12;;;;;;;14.60;8.23;;;13.90;92.90;;;;;;5010764;28;20523;-68
2023/06/02 05:43:40;;;;;;;14.90;9.63;;;14.00;93.10;;;;;;5010362;28;20476;-68
2023/06/02 05:46:08;;;;;;;11.80;8.80;;;14.00;93.10;;;;;;5010617;28;20450;-68
2023/06/02 05:48:36;;;;;;;11.10;7.60;;;14.10;92.90;;;;;;5010527;28;20465;-68
2023/06/02 05:51:04;;;;;;;9.97;8.90;;;14.10;93.10;;;;;;5010617;28;20543;-67
2023/06/02 05:53:32;;;;;;;10.83;7.90;;;14.20;92.30;;;;;;5010424;28;20518;-68
2023/06/02 05:56:02;;;;;;;11.10;8.27;;;14.20;92.30;;;;;;5010396;28;20537;-68
2023/06/02 05:58:31;;;;;;;9.57;8.13;;;14.20;92.40;;;;;;5010440;28;20517;-68
2023/06/02 06:00:59;;;;;;;10.40;8.40;;;14.30;92.50;;;;;;5010471;28;20457;-68
2023/06/02 06:03:27;;;;;;;12.03;8.63;;;14.40;92.40;;;;;;5010148;28;20543;-67
2023/06/02 06:05:55;;;;;;;9.47;8.47;;;14.50;91.90;;;;;;5010217;28;20972;-68
2023/06/02 06:08:23;;;;;;;8.83;7.57;;;14.50;92.00;;;;;;5010180;28;21271;-67
2023/06/02 06:10:51;;;;;;;9.50;7.90;;;14.60;91.50;;;;;;5010250;28;20442;-67
2023/06/02 06:13:20;;;;;;;9.07;7.70;;;14.60;90.90;;;;;;5009764;28;20476;-68
2023/06/02 06:15:48;;;;;;;9.27;7.00;;;14.60;91.00;;;;;;5010050;28;20519;-68
2023/06/02 06:18:18;;;;;;;10.20;9.20;;;14.60;91.40;;;;;;5009954;28;20450;-68
2023/06/02 06:20:46;;;;;;;11.63;9.20;;;14.50;90.80;;;;;;5009651;28;20825;-69
2023/06/02 06:23:14;;;;;;;8.03;7.23;;;14.50;91.00;;;;;;5009622;28;20476;-69
2023/06/02 06:25:42;;;;;;;9.70;8.00;;;14.50;90.90;;;;;;5010282;28;20469;-68
2023/06/02 06:28:10;;;;;;;10.57;7.90;;;14.60;91.10;;;;;;5009825;28;20540;-68
2023/06/02 06:30:40;;;;;;;10.80;8.23;;;14.70;91.10;;;;;;5011102;28;20840;-67
2023/06/02 06:33:08;;;;;;;15.63;7.60;;;14.70;91.10;;;;;;5009948;28;20442;-69
2023/06/02 06:35:51;;;;;;;9.53;7.63;;;14.70;90.80;;;;;;5010459;28;20533;-68
2023/06/02 06:38:19;;;;;;;10.53;8.30;;;14.70;90.40;;;;;;5010272;28;21022;-67
2023/06/02 06:40:47;;;;;;;9.50;8.60;;;14.80;90.90;;;;;;5010384;28;20543;-67
2023/06/02 06:43:16;;;;;;;9.43;7.83;;;14.80;90.40;;;;;;5010156;28;21042;-67
2023/06/02 06:45:53;;;;;;;11.57;8.33;;;14.80;91.00;;;;;;5010272;28;20464;-67
2023/06/02 06:48:21;;;;;;;9.13;8.07;;;14.90;90.90;;;;;;5009990;28;20461;-68
2023/06/02 06:50:49;;;;;;;8.00;7.20;;;15.10;90.60;;;;;;5009779;28;20831;-68
2023/06/02 06:53:18;;;;;;;7.97;7.00;;;15.20;90.40;;;;;;5009317;28;21025;-68
2023/06/02 06:55:48;;;;;;;10.77;8.00;;;15.20;88.80;;;;;;5009933;28;20826;-68
2023/06/02 06:58:15;;;;;;;9.80;8.00;;;15.10;89.80;;;;;;5009842;28;20491;-67
2023/06/02 07:00:43;;;;;;;7.97;7.17;;;15.10;90.00;;;;;;5009338;28;20482;-68
2023/06/02 07:03:13;;;;;;;9.57;7.60;;;15.30;90.40;;;;;;5009214;28;20983;-67
2023/06/02 07:05:43;;;;;;;11.80;8.07;;;15.30;90.30;;;;;;5009479;28;20452;-68
2023/06/02 07:08:11;;;;;;;12.93;8.70;;;15.40;87.90;;;;;;5009790;28;20436;-68
2023/06/02 07:10:39;;;;;;;10.47;7.30;;;15.50;87.70;;;;;;5009749;28;20586;-67
2023/06/02 07:13:07;;;;;;;10.00;9.00;;;15.50;88.30;;;;;;5009499;28;20525;-66
2023/06/02 07:15:36;;;;;;;11.13;9.27;;;15.60;87.50;;;;;;5009599;28;20481;-68
2023/06/02 07:18:04;;;;;;;10.40;8.40;;;15.60;86.50;;;;;;5009458;28;20525;-67
2023/06/02 07:20:33;;;;;;;12.00;7.80;;;15.70;86.90;;;;;;5009728;28;20557;-68
2023/06/02 07:23:02;;;;;;;11.53;8.33;;;15.80;86.60;;;;;;5009267;28;20481;-69
2023/06/02 07:25:30;;;;;;;9.43;8.20;;;15.90;85.60;;;;;;5009838;28;20438;-68
2023/06/02 07:27:58;;;;;;;8.60;7.80;;;15.90;85.50;;;;;;5009618;28;20451;-68
2023/06/02 07:30:26;;;;;;;8.93;7.93;;;16.00;86.00;;;;;;5009779;28;20468;-67
2023/06/02 07:32:54;;;;;;;9.80;7.57;;;16.10;84.80;;;;;;5010992;28;20812;-69
2023/06/02 07:35:22;;;;;;;8.20;7.17;;;16.20;85.80;;;;;;5013666;28;20444;-67
2023/06/02 07:37:53;;;;;;;7.40;6.70;;;16.30;84.00;;;;;;5013062;28;20459;-68
2023/06/02 07:40:21;;;;;;;9.80;8.20;;;16.40;83.80;;;;;;5013266;28;20463;-68
2023/06/02 07:42:49;;;;;;;8.07;7.27;;;16.40;82.10;;;;;;5012648;28;20574;-68
2023/06/02 07:45:17;;;;;;;8.93;7.20;;;16.50;82.50;;;;;;5013010;28;20949;-68
2023/06/02 07:47:46;;;;;;;9.27;8.37;;;16.60;82.20;;;;;;5013015;28;20793;-69
2023/06/02 07:50:14;;;;;;;8.40;7.40;;;16.70;82.20;;;;;;5012967;28;20466;-67
2023/06/02 07:52:42;;;;;;;8.50;7.47;;;16.90;80.50;;;;;;5012820;28;20790;-68
2023/06/02 07:55:12;;;;;;;8.80;8.00;;;17.00;80.10;;;;;;5013093;28;20448;-68
2023/06/02 07:57:40;;;;;;;8.13;6.97;;;17.10;79.80;;;;;;5012769;28;20484;-69
2023/06/02 08:00:13;;;;;;;10.50;7.20;;;17.10;78.70;;;;;;5012826;28;20462;-69
2023/06/02 08:02:43;;;;;;;9.00;8.10;;;17.20;79.70;;;;;;5011408;28;20438;-69
2023/06/02 08:05:11;;;;;;;7.87;7.07;;;17.30;79.30;;;;;;5013043;28;20445;-69
2023/06/02 08:07:39;;;;;;;12.70;7.03;;;17.40;78.70;;;;;;5012875;28;20454;-68
2023/06/02 08:10:09;;;;;;;8.60;7.70;;;17.40;78.10;;;;;;5012489;28;20466;-70
2023/06/02 08:12:39;;;;;;;8.73;8.03;;;17.40;78.50;;;;;;5012322;28;20450;-68
2023/06/02 08:15:08;;;;;;;9.60;8.20;;;17.30;78.40;;;;;;5012757;28;20457;-69
2023/06/02 08:17:36;;;;;;;8.87;7.60;;;17.40;77.20;;;;;;5012635;28;20452;-69
2023/06/02 08:20:06;;;;;;;8.37;7.30;;;17.60;76.70;;;;;;5012558;28;20462;-67
2023/06/02 08:22:36;;;;;;;9.03;7.53;;;17.80;77.30;;;;;;5012214;28;20446;-67
2023/06/02 08:25:04;;;;;;;10.30;7.10;;;17.80;74.90;;;;;;5012622;28;20564;-67
2023/06/02 08:27:32;;;;;;;7.77;7.07;;;17.80;75.50;;;;;;5012891;28;20445;-68
2023/06/02 08:30:01;;;;;;;11.30;7.80;;;17.80;75.50;;;;;;5012577;28;21091;-67
2023/06/02 08:32:29;;;;;;;10.40;8.90;;;17.80;75.70;;;;;;5012337;28;20470;-67
2023/06/02 08:35:01;;;;;;;8.70;7.77;;;17.90;76.20;;;;;;5012452;28;20503;-67
2023/06/02 08:37:32;;;;;;;8.70;7.30;;;18.00;74.30;;;;;;5012537;28;20457;-68
2023/06/02 08:40:00;;;;;;;10.00;9.10;;;18.10;75.20;;;;;;5012276;28;20565;-68
2023/06/02 08:42:28;;;;;;;8.23;7.50;;;18.30;74.30;;;;;;5011948;28;20446;-67
2023/06/02 08:44:56;;;;;;;8.03;7.33;;;18.40;74.40;;;;;;5011327;28;20844;-68
2023/06/02 08:47:28;;;;;;;8.27;7.43;;;18.30;73.50;;;;;;5012603;28;20446;-68
2023/06/02 08:49:59;;;;;;;8.73;7.80;;;18.40;72.60;;;;;;5012153;28;21095;-68
2023/06/02 08:52:28;;;;;;;8.70;7.67;;;18.60;72.80;;;;;;5011788;28;21114;-67
2023/06/02 08:54:57;;;;;;;11.80;7.60;;;18.50;70.80;;;;;;5011402;28;20799;-69
2023/06/02 08:57:25;;;;;;;9.13;8.23;;;18.60;72.10;;;;;;5011654;28;20438;-68
2023/06/02 08:59:53;;;;;;;10.33;7.70;;;18.60;73.10;;;;;;5011318;28;21103;-67
2023/06/02 09:02:21;;;;;;;10.27;8.23;;;18.70;72.40;;;;;;5011211;28;20450;-67
2023/06/02 09:04:51;;;;;;;8.70;7.90;;;18.60;72.30;;;;;;5011338;28;21015;-68
2023/06/02 09:07:23;;;;;;;9.17;7.83;;;18.60;73.30;;;;;;5011421;28;20980;-68
2023/06/02 09:09:53;;;;;;;9.70;8.80;;;18.80;72.20;;;;;;5011317;28;20501;-68
2023/06/02 09:12:24;;;;;;;9.60;8.70;;;18.90;72.30;;;;;;5010937;28;20456;-67
2023/06/02 09:15:08;;;;;;;10.17;9.17;;;18.70;70.40;;;;;;5011267;28;20994;-68
2023/06/02 09:17:37;;;;;;;9.23;8.40;;;18.70;70.90;;;;;;5011140;28;20536;-68
2023/06/02 09:20:10;;;;;;;9.13;7.40;;;18.70;73.30;;;;;;5011285;28;20462;-67
2023/06/02 09:22:53;;;;;;;11.50;8.07;;;18.80;71.10;;;;;;5010986;28;20482;-68
2023/06/02 09:25:24;;;;;;;10.10;8.50;;;19.00;70.20;;;;;;5010898;28;20473;-69
2023/06/02 09:27:52;;;;;;;7.70;7.00;;;19.10;70.80;;;;;;5010801;28;20488;-68
2023/06/02 09:30:21;;;;;;;12.13;8.50;;;19.40;71.40;;;;;;5011053;28;20850;-69
2023/06/02 09:32:56;;;;;;;9.77;7.53;;;19.40;69.60;;;;;;5010695;28;20832;-68
2023/06/02 09:35:40;;;;;;;9.60;8.00;;;19.50;69.10;;;;;;5010906;28;20441;-67
2023/06/02 09:38:11;;;;;;;10.50;8.23;;;19.50;69.20;;;;;;5010769;28;20484;-68
2023/06/02 09:40:40;;;;;;;8.53;7.67;;;19.50;67.70;;;;;;5010992;28;20450;-66
2023/06/02 09:43:10;;;;;;;9.33;7.90;;;19.40;68.60;;;;;;5010517;28;20453;-68
2023/06/02 09:46:03;;;;;;;9.47;8.33;;;19.50;68.60;;;;;;5011084;28;20500;-69
2023/06/02 09:48:34;;;;;;;11.30;7.80;;;19.60;67.60;;;;;;5010744;28;20453;-69
2023/06/02 09:51:21;;;;;;;8.43;7.63;;;19.70;67.50;;;;;;5011108;28;20434;-67
2023/06/02 09:53:50;;;;;;;11.43;8.43;;;20.10;66.50;;;;;;5010679;28;20827;-68
2023/06/02 09:56:22;;;;;;;8.20;7.47;;;20.00;66.70;;;;;;5010909;28;20501;-68
2023/06/02 09:58:50;;;;;;;8.67;7.70;;;20.50;66.20;;;;;;5010776;28;20553;-68
2023/06/02 10:01:18;;;;;;;8.07;7.47;;;21.50;63.00;;;;;;5010832;28;20529;-68
2023/06/02 10:03:49;;;;;;;9.63;8.73;;;22.10;61.10;;;;;;5010220;28;20528;-69
2023/06/02 10:06:35;;;;;;;11.63;8.20;;;22.60;58.70;;;;;;5010600;28;20473;-69
2023/06/02 10:09:24;;;;;;;10.40;8.80;;;22.10;59.60;;;;;;5010208;28;20457;-70
2023/06/02 10:12:04;;;;;;;9.60;8.70;;;21.90;58.20;;;;;;5010613;28;20802;-68
2023/06/02 10:14:53;;;;;;;8.03;7.10;;;22.00;58.20;;;;;;5010112;28;20540;-69
2023/06/02 10:17:36;;;;;;;7.77;7.07;;;22.30;58.00;;;;;;5008930;28;21015;-70
2023/06/02 10:20:25;;;;;;;7.30;6.70;;;22.70;57.60;;;;;;5010029;28;20556;-68
2023/06/02 10:23:23;;;;;;;7.97;7.27;;;23.10;56.20;;;;;;5009748;28;20944;-69
2023/06/02 10:26:10;;;;;;;9.07;8.33;;;23.10;57.50;;;;;;5010154;28;20484;-69
2023/06/02 10:28:39;;;;;;;8.20;7.50;;;23.80;54.80;;;;;;5009974;28;21256;-68
2023/06/02 10:31:08;;;;;;;8.20;7.40;;;24.00;53.90;;;;;;5010158;28;20444;-69
2023/06/02 10:33:47;;;;;;;8.83;8.03;;;24.00;52.90;;;;;;5009584;28;20445;-66
2023/06/02 10:36:17;;;;;;;12.80;7.50;;;24.00;53.30;;;;;;5010006;28;20445;-67
2023/06/02 10:38:47;;;;;;;8.30;7.50;;;23.90;53.80;;;;;;5009829;28;20458;-68
2023/06/02 10:41:21;;;;;;;7.63;6.87;;;24.00;53.10;;;;;;5010007;28;20454;-66
2023/06/02 10:44:23;;;;;;;8.07;7.27;;;24.40;52.90;;;;;;5009627;28;20430;-68
2023/06/02 10:47:24;;;;;;;7.97;7.20;;;24.20;51.40;;;;;;5010123;28;20433;-69
2023/06/02 10:49:53;;;;;;;7.70;6.90;;;24.10;51.90;;;;;;5009684;28;20454;-68
2023/06/02 10:52:22;;;;;;;9.40;8.20;;;24.40;51.30;;;;;;5009828;28;20525;-69
2023/06/02 10:55:23;;;;;;;8.47;7.57;;;24.50;50.50;;;;;;5009767;28;20438;-68
2023/06/02 10:57:53;;;;;;;7.30;6.60;;;24.80;49.70;;;;;;5009625;28;20461;-69
2023/06/02 11:00:45;;;;;;;7.03;6.33;;;24.00;49.00;;;;;;5009612;28;20469;-69
2023/06/02 11:03:31;;;;;;;6.97;6.37;;;24.10;49.10;;;;;;5007504;28;20536;-68
2023/06/02 11:06:19;;;;;;;7.20;6.47;;;24.50;48.40;;;;;;5009814;28;20859;-68
2023/06/02 11:08:49;;;;;;;6.40;5.90;;;24.40;48.20;;;;;;5012748;28;20457;-68
2023/06/02 11:11:54;;;;;;;7.53;6.43;;;24.50;48.50;;;;;;5013473;28;20532;-69
2023/06/02 11:14:23;;;;;;;7.53;6.83;;;24.20;50.00;;;;;;5012087;28;20477;-68
2023/06/02 11:17:29;;;;;;;7.20;6.50;;;24.70;48.20;;;;;;5013580;28;20441;-67
2023/06/02 11:19:57;;;;;;;7.53;6.93;;;25.30;45.70;;;;;;5013254;28;20830;-68
2023/06/02 11:22:25;;;;;;;7.47;6.77;;;25.00;45.10;;;;;;5013109;28;20441;-67
2023/06/02 11:24:54;;;;;;;7.07;6.40;;;25.00;45.90;;;;;;5013335;28;20496;-67
2023/06/02 11:27:36;;;;;;;6.10;5.63;;;24.80;45.40;;;;;;5013370;28;20540;-67
2023/06/02 11:30:15;;;;;;;7.10;6.50;;;25.00;43.80;;;;;;5013154;28;20512;-68
2023/06/02 11:32:47;;;;;;;8.10;6.60;;;25.20;44.80;;;;;;5012633;28;20536;-69
2023/06/02 11:35:19;;;;;;;9.30;6.80;;;25.20;45.20;;;;;;5013007;28;20438;-67
2023/06/02 11:38:02;;;;;;;5.80;5.30;;;24.50;45.80;;;;;;5013194;28;20963;-67
2023/06/02 11:40:30;;;;;;;6.83;5.77;;;24.50;45.00;;;;;;5012970;28;20434;-67
2023/06/02 11:42:58;;;;;;;6.07;5.57;;;24.50;44.00;;;;;;5012847;28;20449;-68
2023/06/02 11:45:28;;;;;;;6.47;5.87;;;25.30;44.60;;;;;;5012785;28;20507;-67
2023/06/02 11:47:58;;;;;;;6.10;5.60;;;25.80;42.40;;;;;;5013011;28;20540;-68
2023/06/02 11:50:26;;;;;;;6.60;5.90;;;26.00;42.00;;;;;;5013099;28;20474;-67
2023/06/02 11:52:55;;;;;;;5.90;5.40;;;26.60;39.40;;;;;;5012647;28;20504;-68
2023/06/02 11:55:27;;;;;;;5.80;5.30;;;26.80;38.80;;;;;;5012741;28;20441;-67
2023/06/02 11:58:17;;;;;;;5.37;4.97;;;26.80;40.60;;;;;;5013135;28;20499;-68
2023/06/02 12:00:46;;;;;;;7.40;6.60;;;27.90;40.20;;;;;;5012909;28;20493;-69
2023/06/02 12:03:14;;;;;;;6.97;5.30;;;27.90;38.00;;;;;;5012640;28;20849;-68
2023/06/02 12:05:44;;;;;;;6.60;5.90;;;27.10;39.40;;;;;;5012697;28;20470;-69
2023/06/02 12:08:17;;;;;;;5.90;5.43;;;27.10;40.30;;;;;;5012706;28;20438;-68
2023/06/02 12:10:45;;;;;;;6.80;6.10;;;26.90;40.20;;;;;;5012557;28;20548;-67
2023/06/02 12:13:23;;;;;;;6.60;5.93;;;26.20;40.40;;;;;;5012229;28;20434;-68
2023/06/02 12:15:53;;;;;;;7.97;6.53;;;26.20;43.30;;;;;;5012392;28;20440;-68
2023/06/02 12:18:29;;;;;;;7.53;6.53;;;27.30;41.40;;;;;;5011821;28;21059;-68
2023/06/02 12:20:58;;;;;;;9.27;6.33;;;27.50;41.00;;;;;;5012065;28;20450;-67
2023/06/02 12:23:42;;;;;;;6.23;5.13;;;28.00;41.50;;;;;;5012109;28;20446;-67
2023/06/02 12:26:10;;;;;;;7.13;6.17;;;28.30;38.80;;;;;;5012129;28;20547;-67
2023/06/02 12:28:39;;;;;;;8.20;6.10;;;27.80;39.90;;;;;;5011844;28;20975;-67
2023/06/02 12:31:09;;;;;;;7.00;6.30;;;27.60;40.80;;;;;;5011924;28;21067;-67
2023/06/02 12:33:37;;;;;;;6.93;6.30;;;27.60;41.10;;;;;;5011823;28;20480;-67
2023/06/02 12:36:05;;;;;;;6.93;6.33;;;27.80;40.70;;;;;;5012168;28;20536;-68
2023/06/02 12:38:34;;;;;;;7.00;6.40;;;27.40;41.10;;;;;;5011810;28;20528;-67
2023/06/02 12:41:03;;;;;;;7.33;6.40;;;27.20;42.00;;;;;;5011663;28;21079;-68
2023/06/02 12:43:31;;;;;;;7.30;6.67;;;26.90;42.60;;;;;;5011613;28;20445;-67
2023/06/02 12:45:59;;;;;;;6.47;5.90;;;26.60;42.00;;;;;;5011653;28;20481;-68
2023/06/02 12:48:30;;;;;;;8.10;5.57;;;26.30;43.50;;;;;;5011561;28;20488;-68
2023/06/02 12:50:58;;;;;;;7.43;6.10;;;26.40;43.30;;;;;;5011678;28;20516;-67
2023/06/02 12:53:26;;;;;;;7.50;5.70;;;27.10;42.90;;;;;;5011344;28;20468;-68
2023/06/02 12:55:55;;;;;;;6.20;5.70;;;26.80;42.70;;;;;;5011639;28;20444;-69
2023/06/02 12:58:23;;;;;;;7.00;6.30;;;26.80;43.00;;;;;;5011393;28;20469;-68
2023/06/02 13:00:50;;;;;;;6.33;5.80;;;27.00;42.90;;;;;;5011592;28;20466;-69
2023/06/02 13:03:18;;;;;;;6.20;5.70;;;27.40;41.60;;;;;;5011209;28;21093;-68